Time;durP1;ratioP1;P1;durP2;ratioP2;P2;SDS_P1;SDS_P2;PMS_P1;PMS_P2;Temp;Humidity;BMP_temperature;BMP_pressure;BME280_temperature;BME280_humidity;BME280_pressure;Samples;Min_cycle;Max_cycle;Signal;HPM_P1;HPM_P2
2023/01/14 00:01:51;;;;;;;234.52;106.47;;;4.40;99.90;;;;;;5077619;28;20039;-83
2023/01/14 00:04:17;;;;;;;263.42;115.72;;;4.50;99.90;;;;;;5077971;28;20054;-83
2023/01/14 00:06:43;;;;;;;276.13;125.68;;;4.40;99.90;;;;;;5077912;28;20022;-84
2023/01/14 00:09:13;;;;;;;325.83;143.20;;;4.40;99.90;;;;;;5095379;28;20095;-83
2023/01/14 00:11:48;;;;;;;281.70;129.40;;;4.40;99.90;;;;;;5077959;28;20110;-82
2023/01/14 00:14:23;;;;;;;317.08;142.45;;;4.40;99.90;;;;;;5077568;28;20042;-84
2023/01/14 00:16:50;;;;;;;270.63;121.55;;;4.30;99.90;;;;;;5077381;28;20020;-84
2023/01/14 00:19:18;;;;;;;254.93;116.03;;;4.30;99.90;;;;;;5091003;28;20024;-83
2023/01/14 00:21:44;;;;;;;258.92;120.97;;;4.30;99.90;;;;;;5078258;28;20020;-83
2023/01/14 00:24:14;;;;;;;241.80;109.07;;;4.20;99.90;;;;;;5078106;28;20055;-82
2023/01/14 00:26:41;;;;;;;218.73;95.93;;;4.10;99.90;;;;;;5078059;28;20097;-83
2023/01/14 00:29:14;;;;;;;215.43;94.77;;;4.10;99.90;;;;;;5078285;28;20051;-83
2023/01/14 00:31:40;;;;;;;196.07;87.35;;;4.00;99.90;;;;;;5077930;28;20028;-83
2023/01/14 00:34:05;;;;;;;201.45;91.85;;;3.90;99.90;;;;;;5096288;28;20028;-83
2023/01/14 00:36:31;;;;;;;198.10;90.90;;;3.90;99.90;;;;;;5077362;28;20482;-84
2023/01/14 00:38:57;;;;;;;204.55;95.07;;;3.90;99.90;;;;;;5077369;28;20026;-83
2023/01/14 00:41:25;;;;;;;223.98;104.07;;;3.90;99.90;;;;;;5077348;28;20020;-82
2023/01/14 00:43:54;;;;;;;217.82;101.10;;;3.90;99.90;;;;;;5094830;28;20020;-83
2023/01/14 00:46:25;;;;;;;208.30;101.72;;;3.90;99.90;;;;;;5077358;28;20119;-82
2023/01/14 00:48:51;;;;;;;;;;;3.90;99.90;;;;;;5077536;28;20020;-84
2023/01/14 00:51:18;;;;;;;234.90;106.28;;;3.90;99.90;;;;;;5094998;28;19908;-83
2023/01/14 00:53:47;;;;;;;232.40;107.80;;;3.90;99.90;;;;;;5095490;28;20031;-83
2023/01/14 00:56:17;;;;;;;254.15;116.68;;;3.90;99.90;;;;;;5095653;28;20110;-82
2023/01/14 00:58:43;;;;;;;245.10;110.20;;;3.90;99.90;;;;;;5095380;28;20063;-83
2023/01/14 01:01:09;;;;;;;239.18;107.35;;;3.90;99.90;;;;;;5095746;28;20031;-82
2023/01/14 01:03:41;;;;;;;229.18;104.25;;;3.90;99.90;;;;;;5077349;28;20024;-83
2023/01/14 01:06:07;;;;;;;;;;;3.90;99.90;;;;;;5095846;28;20036;-83
2023/01/14 01:08:33;;;;;;;238.52;106.00;;;3.90;99.90;;;;;;5076905;28;20336;-82
2023/01/14 01:10:59;;;;;;;235.18;102.78;;;4.00;99.90;;;;;;5077374;28;20012;-83
2023/01/14 01:13:25;;;;;;;217.98;95.25;;;4.00;99.90;;;;;;5095311;28;20024;-83
2023/01/14 01:15:52;;;;;;;224.27;97.80;;;3.90;99.90;;;;;;5076515;28;20473;-82
2023/01/14 01:18:19;;;;;;;220.07;98.90;;;3.90;99.90;;;;;;5094327;28;20032;-83
2023/01/14 01:20:45;;;;;;;201.95;90.82;;;3.90;99.90;;;;;;5076005;28;20088;-84
2023/01/14 01:23:14;;;;;;;203.90;91.15;;;3.90;99.90;;;;;;5076273;28;20020;-83
2023/01/14 01:25:40;;;;;;;207.90;99.90;;;3.90;99.90;;;;;;5094790;28;20232;-82
2023/01/14 01:28:06;;;;;;;207.98;99.03;;;3.90;99.90;;;;;;5076627;28;20137;-82
2023/01/14 01:30:32;;;;;;;196.32;89.10;;;4.00;99.90;;;;;;5076429;28;20020;-82
2023/01/14 01:32:58;;;;;;;172.02;79.30;;;4.00;99.90;;;;;;5076080;28;20106;-83
2023/01/14 01:35:24;;;;;;;178.73;83.00;;;3.90;99.90;;;;;;5094256;28;20063;-83
2023/01/14 01:37:51;;;;;;;185.85;85.40;;;3.90;99.90;;;;;;5075830;28;20016;-83
2023/01/14 01:40:17;;;;;;;173.60;77.78;;;4.00;99.90;;;;;;5075736;28;20026;-82
2023/01/14 01:42:55;;;;;;;175.88;79.75;;;4.00;99.90;;;;;;5094034;28;20376;-83
2023/01/14 01:45:46;;;;;;;176.98;80.00;;;4.00;99.90;;;;;;5075898;28;20039;-84
2023/01/14 01:48:30;;;;;;;196.63;86.20;;;4.00;99.90;;;;;;5093386;28;20024;-83
2023/01/14 01:51:06;;;;;;;181.13;82.40;;;4.00;99.90;;;;;;5075826;28;20111;-83
2023/01/14 01:53:36;;;;;;;199.82;91.93;;;4.00;99.90;;;;;;5089006;28;20030;-82
2023/01/14 01:56:04;;;;;;;212.00;97.68;;;4.00;99.90;;;;;;5076576;28;20466;-83
2023/01/14 01:58:31;;;;;;;196.75;88.65;;;4.00;99.90;;;;;;5076479;28;20451;-83
2023/01/14 02:00:57;;;;;;;175.13;79.63;;;4.00;99.90;;;;;;5076174;28;20027;-83
2023/01/14 02:03:36;;;;;;;201.88;88.10;;;4.00;99.90;;;;;;5094478;28;20099;-84
2023/01/14 02:06:02;;;;;;;214.55;88.53;;;4.00;99.90;;;;;;5076231;28;20347;-82
2023/01/14 02:08:28;;;;;;;206.98;89.05;;;4.00;99.90;;;;;;5076107;28;20027;-82
2023/01/14 02:11:03;;;;;;;182.65;81.93;;;3.90;99.90;;;;;;5076012;28;20024;-83
2023/01/14 02:13:50;;;;;;;217.20;94.35;;;3.90;99.90;;;;;;5076170;28;20085;-83
2023/01/14 02:16:40;;;;;;;239.50;97.40;;;3.90;99.90;;;;;;5076026;28;20016;-83
2023/01/14 02:19:34;;;;;;;213.82;92.97;;;3.80;99.90;;;;;;5076070;28;20023;-83
2023/01/14 02:22:12;;;;;;;187.07;82.60;;;3.70;99.90;;;;;;5075428;28;20390;-82
2023/01/14 02:24:50;;;;;;;179.02;79.82;;;3.70;99.90;;;;;;5076128;28;20047;-83
2023/01/14 02:27:38;;;;;;;175.23;80.15;;;3.70;99.90;;;;;;5075965;28;20020;-82
2023/01/14 02:30:26;;;;;;;173.52;76.68;;;3.70;99.90;;;;;;5094031;28;20397;-82
2023/01/14 02:33:06;;;;;;;169.23;79.38;;;3.70;99.90;;;;;;5075591;28;20019;-82
2023/01/14 02:35:47;;;;;;;172.63;78.45;;;3.80;99.90;;;;;;5075239;28;20455;-84
2023/01/14 02:38:22;;;;;;;170.30;79.70;;;3.70;99.90;;;;;;5075265;28;20346;-83
2023/01/14 02:41:08;;;;;;;176.15;81.05;;;3.70;99.90;;;;;;5075158;28;20015;-82
2023/01/14 02:44:11;;;;;;;162.70;76.78;;;3.70;99.90;;;;;;5087399;28;20060;-81
2023/01/14 02:46:48;;;;;;;170.50;77.80;;;3.70;99.90;;;;;;5093065;28;20023;-81
2023/01/14 02:49:19;;;;;;;159.55;76.47;;;3.70;99.90;;;;;;5074639;28;20016;-83
2023/01/14 02:51:47;;;;;;;188.95;92.35;;;3.70;99.90;;;;;;5093374;28;20374;-82
2023/01/14 02:54:13;;;;;;;172.68;86.03;;;3.70;99.90;;;;;;5093135;28;20412;-83
2023/01/14 02:56:39;;;;;;;184.70;85.32;;;3.70;99.90;;;;;;5092844;28;20022;-82
2023/01/14 02:59:40;;;;;;;176.70;84.30;;;3.70;99.90;;;;;;5075160;28;20020;-82
2023/01/14 03:02:23;;;;;;;203.65;96.40;;;3.60;99.90;;;;;;4968461;28;20544;-81
2023/01/14 03:05:15;;;;;;;218.60;107.15;;;3.70;99.90;;;;;;4955729;28;20393;-83
2023/01/14 03:08:04;;;;;;;198.70;99.88;;;3.70;99.90;;;;;;4971918;28;20031;-82
2023/01/14 03:10:38;;;;;;;200.15;100.13;;;3.80;99.90;;;;;;4955659;28;20110;-82
2023/01/14 03:13:22;;;;;;;218.00;106.45;;;3.70;99.90;;;;;;4952560;29;20039;-81
2023/01/14 03:15:59;;;;;;;225.15;108.55;;;3.70;99.90;;;;;;4970706;28;20026;-81
2023/01/14 03:18:33;;;;;;;237.88;114.95;;;3.70;99.90;;;;;;4955258;28;20035;-81
2023/01/14 03:21:03;;;;;;;245.13;117.88;;;3.70;99.90;;;;;;4971885;28;20042;-81
2023/01/14 03:23:34;;;;;;;234.30;111.95;;;3.70;99.90;;;;;;4955642;28;20093;-82
2023/01/14 03:26:02;;;;;;;246.70;116.00;;;3.80;99.90;;;;;;4971623;28;20105;-82
2023/01/14 03:28:34;;;;;;;248.10;117.47;;;3.80;99.90;;;;;;4954950;28;20522;-82
2023/01/14 03:31:04;;;;;;;252.05;118.90;;;3.80;99.90;;;;;;4971614;28;20425;-82
2023/01/14 03:33:35;;;;;;;238.55;115.45;;;3.90;99.90;;;;;;4956153;29;20027;-82
2023/01/14 03:36:03;;;;;;;246.95;117.15;;;3.90;99.90;;;;;;4968806;28;20022;-82
2023/01/14 03:38:39;;;;;;;241.80;118.70;;;3.90;99.90;;;;;;5032971;28;20105;-82
2023/01/14 03:41:08;;;;;;;246.00;115.80;;;3.90;99.90;;;;;;5078200;28;20023;-82
2023/01/14 03:43:48;;;;;;;243.80;114.47;;;3.90;99.90;;;;;;5096594;28;20040;-82
2023/01/14 03:46:14;;;;;;;239.15;112.63;;;3.90;99.90;;;;;;5078481;28;20051;-82
2023/01/14 03:48:40;;;;;;;244.07;115.63;;;3.90;99.90;;;;;;5064911;28;20024;-82
2023/01/14 03:51:24;;;;;;;233.50;112.40;;;3.90;99.90;;;;;;5096421;28;20024;-82
2023/01/14 03:54:00;;;;;;;228.65;113.93;;;3.90;99.90;;;;;;5096535;28;20028;-82
2023/01/14 03:56:29;;;;;;;244.02;109.32;;;4.00;99.90;;;;;;5096877;28;20019;-82
2023/01/14 03:59:04;;;;;;;241.30;116.60;;;4.00;99.90;;;;;;5078812;28;20028;-81
2023/01/14 04:01:42;;;;;;;253.20;117.22;;;4.00;99.90;;;;;;5096782;28;20062;-82
2023/01/14 04:04:09;;;;;;;245.65;115.20;;;4.00;99.90;;;;;;5096883;28;20031;-82
2023/01/14 04:06:35;;;;;;;247.93;112.82;;;4.00;99.90;;;;;;5078404;28;20085;-82
2023/01/14 04:09:01;;;;;;;248.73;113.30;;;4.00;99.90;;;;;;5097000;28;20051;-81
2023/01/14 04:11:27;;;;;;;252.90;117.22;;;4.10;99.90;;;;;;5096756;28;20028;-82
2023/01/14 04:16:36;;;;;;;243.23;112.65;;;4.10;99.90;;;;;;5096498;28;20035;-82
2023/01/14 04:19:02;;;;;;;246.43;110.72;;;4.20;99.90;;;;;;5096740;28;20012;-81
2023/01/14 04:21:28;;;;;;;256.52;114.75;;;4.20;99.90;;;;;;5096332;28;20040;-81
2023/01/14 04:23:53;;;;;;;248.55;115.30;;;4.20;99.90;;;;;;5077672;28;20084;-81
2023/01/14 04:26:19;;;;;;;239.30;113.15;;;4.20;99.90;;;;;;5095814;28;20443;-82
2023/01/14 04:28:45;;;;;;;246.02;113.50;;;4.20;99.90;;;;;;5096037;28;20051;-81
2023/01/14 04:31:10;;;;;;;246.68;116.55;;;4.30;99.90;;;;;;5077660;28;20483;-82
2023/01/14 04:33:36;;;;;;;254.95;118.90;;;4.30;99.90;;;;;;5095357;28;20020;-82
2023/01/14 04:36:02;;;;;;;347.88;152.90;;;4.30;99.90;;;;;;5095366;28;20077;-82
2023/01/14 04:38:27;;;;;;;260.10;119.55;;;4.30;99.90;;;;;;5077029;28;20027;-82
2023/01/14 04:40:57;;;;;;;269.13;125.25;;;4.30;99.90;;;;;;5077244;28;20016;-81
2023/01/14 04:43:23;;;;;;;277.15;127.60;;;4.30;99.90;;;;;;5094603;28;20367;-82
2023/01/14 04:45:51;;;;;;;267.88;118.93;;;4.30;99.90;;;;;;5077053;28;20115;-83
2023/01/14 04:48:18;;;;;;;235.18;111.65;;;4.30;99.90;;;;;;5076771;28;20016;-82
2023/01/14 04:50:46;;;;;;;245.40;109.75;;;4.30;99.90;;;;;;5077187;28;20020;-81
2023/01/14 04:53:21;;;;;;;241.63;109.38;;;4.30;99.90;;;;;;5094717;28;20020;-82
2023/01/14 04:55:47;;;;;;;232.60;108.03;;;4.30;99.90;;;;;;5095224;28;20016;-83
2023/01/14 04:58:17;;;;;;;233.23;106.63;;;4.30;99.90;;;;;;5077053;28;20439;-82
2023/01/14 05:00:44;;;;;;;230.35;106.80;;;4.30;99.90;;;;;;5095371;28;20039;-82
2023/01/14 05:03:12;;;;;;;228.43;106.57;;;4.30;99.90;;;;;;5076509;28;20016;-82
2023/01/14 05:05:38;;;;;;;219.75;106.03;;;4.30;99.90;;;;;;5094843;28;20413;-82
2023/01/14 05:08:05;;;;;;;248.68;115.65;;;4.30;99.90;;;;;;5094762;28;20023;-82
2023/01/14 05:10:31;;;;;;;252.35;115.40;;;4.30;99.90;;;;;;5076607;28;20020;-82
2023/01/14 05:12:58;;;;;;;248.68;135.20;;;4.30;99.90;;;;;;5094833;28;20089;-82
2023/01/14 05:15:28;;;;;;;301.77;149.75;;;4.30;99.90;;;;;;5095115;28;20035;-83
2023/01/14 05:17:54;;;;;;;288.52;128.95;;;4.30;99.90;;;;;;5094301;28;20036;-82
2023/01/14 05:20:23;;;;;;;276.33;130.38;;;4.30;99.90;;;;;;5075907;28;20131;-82
2023/01/14 05:22:49;;;;;;;287.67;131.32;;;4.30;99.90;;;;;;5076233;28;20051;-83
2023/01/14 05:25:14;;;;;;;266.65;122.13;;;4.30;99.90;;;;;;5094009;28;20455;-81
2023/01/14 05:27:40;;;;;;;281.13;131.73;;;4.30;99.90;;;;;;5094616;28;20051;-81
2023/01/14 05:30:07;;;;;;;263.33;119.75;;;4.30;99.90;;;;;;5076309;28;20066;-81
2023/01/14 05:32:33;;;;;;;254.48;114.50;;;4.30;99.90;;;;;;5094239;28;20032;-82
2023/01/14 05:34:58;;;;;;;275.00;119.80;;;4.30;99.90;;;;;;5094641;28;20020;-82
2023/01/14 05:37:24;;;;;;;257.90;113.70;;;4.30;99.90;;;;;;5093927;28;20064;-82
2023/01/14 05:39:50;;;;;;;248.20;110.47;;;4.30;99.90;;;;;;5094332;28;20348;-83
2023/01/14 05:47:44;;;;;;;249.88;116.47;;;4.30;99.90;;;;;;5095006;28;20039;-81
2023/01/14 05:50:13;;;;;;;251.73;117.82;;;4.40;99.90;;;;;;5094820;28;20016;-81
2023/01/14 05:52:39;;;;;;;277.67;131.25;;;4.40;99.90;;;;;;5075589;28;20024;-82
2023/01/14 05:55:05;;;;;;;272.23;130.27;;;4.40;99.90;;;;;;5075874;28;20130;-82
2023/01/14 05:57:31;;;;;;;272.55;124.15;;;4.30;99.90;;;;;;5075992;28;20020;-82
2023/01/14 05:59:57;;;;;;;277.77;119.70;;;4.40;99.90;;;;;;5093713;28;20020;-82
2023/01/14 06:07:55;;;;;;;326.05;146.68;;;4.40;99.90;;;;;;5094100;28;20442;-82
2023/01/14 06:10:24;;;;;;;309.08;137.20;;;4.40;99.90;;;;;;5093740;28;20450;-83
2023/01/14 06:12:57;;;;;;;278.83;128.02;;;4.30;99.90;;;;;;5075695;28;20032;-83
2023/01/14 06:15:35;;;;;;;293.85;138.52;;;4.40;99.90;;;;;;5093523;28;20020;-83
2023/01/14 06:18:15;;;;;;;284.63;130.90;;;4.40;99.90;;;;;;5093080;28;20027;-83
2023/01/14 06:20:44;;;;;;;334.92;151.10;;;4.40;99.90;;;;;;5092421;28;20047;-83
2023/01/14 06:23:13;;;;;;;289.05;136.68;;;4.30;99.90;;;;;;5075667;28;20390;-83
2023/01/14 06:25:41;;;;;;;283.02;132.38;;;4.30;99.90;;;;;;5093858;28;20020;-83
2023/01/14 06:28:07;;;;;;;313.15;135.20;;;4.40;99.90;;;;;;5075748;28;20027;-83
2023/01/14 06:30:32;;;;;;;309.33;135.30;;;4.40;99.90;;;;;;5075951;28;20020;-83
2023/01/14 06:32:58;;;;;;;325.60;137.15;;;4.40;99.90;;;;;;5094169;28;20027;-83
2023/01/14 06:35:24;;;;;;;321.48;139.43;;;4.40;99.90;;;;;;5093474;28;20031;-83
2023/01/14 06:37:50;;;;;;;311.25;130.93;;;4.40;99.90;;;;;;5091882;28;20632;-83
2023/01/14 06:40:16;;;;;;;292.30;128.70;;;4.40;99.90;;;;;;5074330;28;20486;-84
2023/01/14 06:42:42;;;;;;;267.10;119.38;;;4.40;99.90;;;;;;5075555;28;20064;-84
2023/01/14 06:45:09;;;;;;;268.95;119.25;;;4.40;99.90;;;;;;5093621;28;20412;-84
2023/01/14 06:47:35;;;;;;;266.08;118.10;;;4.50;99.90;;;;;;5075680;28;20078;-84
2023/01/14 06:50:01;;;;;;;278.88;121.47;;;4.50;99.90;;;;;;5075848;28;20020;-83
2023/01/14 06:52:27;;;;;;;283.77;125.90;;;4.50;99.90;;;;;;5075925;28;20344;-86
2023/01/14 06:54:54;;;;;;;273.88;118.75;;;4.50;99.90;;;;;;5093441;28;20023;-85
2023/01/14 06:57:20;;;;;;;290.10;120.43;;;4.50;99.90;;;;;;5075720;28;20447;-84
2023/01/14 06:59:46;;;;;;;258.70;116.88;;;4.50;99.90;;;;;;5075673;28;20035;-84
2023/01/14 07:02:12;;;;;;;259.40;111.80;;;4.50;99.90;;;;;;5075714;28;20028;-85
2023/01/14 07:04:38;;;;;;;279.95;116.32;;;4.50;99.90;;;;;;5075392;28;20027;-84
2023/01/14 07:07:05;;;;;;;277.02;119.68;;;4.50;99.90;;;;;;5077429;28;20544;-85
2023/01/14 07:09:30;;;;;;;288.10;125.68;;;4.60;99.90;;;;;;5097673;28;20095;-85
2023/01/14 07:11:56;;;;;;;281.77;120.88;;;4.60;99.90;;;;;;5079609;28;20114;-85
2023/01/14 07:14:22;;;;;;;287.42;124.97;;;4.60;99.90;;;;;;5079678;28;20020;-86
2023/01/14 07:16:48;;;;;;;272.77;119.38;;;4.60;99.90;;;;;;5079363;28;20109;-86
2023/01/14 07:19:13;;;;;;;281.98;121.18;;;4.60;99.90;;;;;;5079198;28;20031;-84
2023/01/14 07:21:39;;;;;;;286.63;122.13;;;4.60;99.90;;;;;;5079503;28;20032;-87
2023/01/14 07:24:06;;;;;;;287.90;123.20;;;4.60;99.90;;;;;;5079106;28;20038;-85
2023/01/14 07:26:32;;;;;;;300.17;131.55;;;4.60;99.90;;;;;;5079274;28;20024;-85
2023/01/14 07:28:57;;;;;;;312.45;138.88;;;4.70;99.90;;;;;;5097311;28;20085;-85
2023/01/14 07:31:23;;;;;;;328.92;144.73;;;4.70;99.90;;;;;;5079082;28;20024;-85
2023/01/14 07:33:49;;;;;;;298.63;132.23;;;4.70;99.90;;;;;;5079152;28;20066;-87
2023/01/14 07:36:15;;;;;;;297.38;129.90;;;4.80;99.90;;;;;;5079002;28;20024;-85
2023/01/14 07:38:41;;;;;;;288.20;127.38;;;4.80;99.90;;;;;;5079235;28;20016;-86
2023/01/14 07:41:11;;;;;;;296.98;124.57;;;4.80;99.90;;;;;;5079026;28;20047;-85
2023/01/14 07:43:37;;;;;;;295.00;126.75;;;4.80;99.90;;;;;;5078766;28;20405;-85
2023/01/14 07:46:06;;;;;;;303.52;128.23;;;4.80;99.90;;;;;;5079289;28;20016;-85
2023/01/14 07:48:32;;;;;;;298.65;130.80;;;4.90;99.90;;;;;;5078859;28;20108;-85
2023/01/14 07:50:58;;;;;;;279.55;126.60;;;4.90;99.90;;;;;;5078743;28;20059;-86
2023/01/14 07:53:24;;;;;;;289.27;125.68;;;4.90;99.90;;;;;;5078622;28;20020;-85
2023/01/14 07:55:49;;;;;;;309.67;132.15;;;4.90;99.90;;;;;;5078681;28;20027;-86
2023/01/14 07:58:16;;;;;;;353.17;153.82;;;4.90;99.90;;;;;;5078821;28;20023;-85
2023/01/14 08:00:42;;;;;;;419.95;189.55;;;5.00;99.90;;;;;;5078701;28;20024;-86
2023/01/14 08:03:08;;;;;;;394.70;185.27;;;5.00;99.90;;;;;;5078437;28;20081;-86
2023/01/14 08:05:34;;;;;;;369.75;162.98;;;5.00;99.90;;;;;;5078476;28;20020;-85
2023/01/14 08:08:00;;;;;;;305.70;140.95;;;5.10;99.90;;;;;;5078560;28;20023;-85
2023/01/14 08:10:25;;;;;;;325.42;150.23;;;5.10;99.90;;;;;;5078407;28;20020;-87
2023/01/14 08:12:51;;;;;;;302.38;134.35;;;5.10;99.90;;;;;;5078518;28;20097;-86
2023/01/14 08:15:18;;;;;;;294.08;129.25;;;5.10;99.90;;;;;;5078486;28;20016;-86
2023/01/14 08:17:43;;;;;;;313.90;140.55;;;5.10;99.90;;;;;;5095434;28;20020;-86
2023/01/14 08:20:10;;;;;;;289.38;130.15;;;5.20;99.90;;;;;;5074222;28;20040;-85
2023/01/14 08:22:36;;;;;;;288.13;128.70;;;5.20;99.90;;;;;;5074757;28;20028;-85
2023/01/14 08:25:02;;;;;;;285.75;127.15;;;5.20;99.90;;;;;;5074954;28;20023;-86
2023/01/14 08:27:28;;;;;;;304.75;139.13;;;5.20;99.90;;;;;;5074644;28;20485;-86
2023/01/14 08:29:54;;;;;;;303.60;136.23;;;5.30;99.90;;;;;;5074723;28;20104;-85
2023/01/14 08:32:20;;;;;;;301.02;131.13;;;5.30;99.90;;;;;;5074488;28;20078;-86
2023/01/14 08:34:46;;;;;;;299.55;131.48;;;5.40;99.90;;;;;;5074806;28;20025;-87
2023/01/14 08:37:12;;;;;;;319.20;139.38;;;5.40;99.90;;;;;;5068415;28;20021;-84
2023/01/14 08:39:38;;;;;;;302.08;138.82;;;5.50;99.90;;;;;;5054526;28;20021;-86
2023/01/14 08:42:03;;;;;;;298.98;138.45;;;5.50;99.90;;;;;;5054406;28;20020;-85
2023/01/14 08:44:29;;;;;;;302.58;137.43;;;5.60;99.90;;;;;;5054331;28;20025;-86
2023/01/14 08:46:55;;;;;;;283.27;128.35;;;5.60;99.90;;;;;;5053680;28;20028;-86
2023/01/14 08:49:21;;;;;;;294.05;132.70;;;5.60;99.90;;;;;;5054012;28;20017;-87
2023/01/14 08:51:46;;;;;;;275.92;128.68;;;5.60;99.90;;;;;;5054285;28;20017;-85
2023/01/14 08:54:12;;;;;;;288.88;130.25;;;5.70;99.90;;;;;;5054105;28;20075;-87
2023/01/14 08:56:38;;;;;;;291.40;126.45;;;5.60;99.90;;;;;;5054338;28;20027;-86
2023/01/14 08:59:04;;;;;;;291.08;135.80;;;5.70;99.90;;;;;;5054221;28;20108;-86
2023/01/14 09:01:30;;;;;;;284.67;124.72;;;5.70;99.90;;;;;;5053959;28;20432;-86
2023/01/14 09:04:00;;;;;;;278.10;124.35;;;5.70;99.90;;;;;;5054211;28;20029;-86
2023/01/14 09:06:26;;;;;;;293.00;135.15;;;5.70;99.90;;;;;;5054001;28;20028;-85
2023/01/14 09:17:19;;;;;;;310.58;131.68;;;5.80;99.90;;;;;;5054989;28;20427;-86
2023/01/14 09:19:50;;;;;;;297.95;130.05;;;5.90;99.90;;;;;;5053278;28;20045;-85
2023/01/14 09:22:25;;;;;;;281.77;124.60;;;5.90;99.90;;;;;;5053568;28;20467;-86
2023/01/14 09:24:51;;;;;;;274.05;123.30;;;5.90;99.90;;;;;;5053959;28;20021;-85
2023/01/14 09:27:17;;;;;;;282.27;123.43;;;5.90;99.90;;;;;;5054922;28;20053;-86
2023/01/14 09:29:43;;;;;;;285.90;129.65;;;5.90;99.90;;;;;;5053202;28;20076;-86
2023/01/14 09:32:11;;;;;;;274.77;123.03;;;6.00;99.90;;;;;;5053637;28;20404;-86
2023/01/14 09:34:41;;;;;;;291.13;134.57;;;5.90;99.90;;;;;;5053475;28;20447;-86
2023/01/14 09:37:10;;;;;;;277.63;126.53;;;6.00;99.90;;;;;;5053329;28;20047;-85
2023/01/14 09:39:36;;;;;;;271.73;121.75;;;6.00;99.90;;;;;;5053402;28;20049;-86
2023/01/14 09:42:08;;;;;;;276.73;123.38;;;6.00;99.90;;;;;;5053667;28;20021;-86
2023/01/14 09:44:34;;;;;;;285.42;127.45;;;6.10;99.90;;;;;;5053290;28;20111;-85
2023/01/14 09:47:00;;;;;;;294.77;130.80;;;6.10;99.90;;;;;;5053179;28;20048;-86
2023/01/14 09:49:28;;;;;;;292.10;132.65;;;6.10;99.90;;;;;;5053480;28;20052;-85
2023/01/14 09:52:03;;;;;;;293.90;130.27;;;6.10;99.90;;;;;;5053266;28;20094;-87
2023/01/14 09:55:43;;;;;;;;;;;;;;;;;;;;;
2023/01/14 09:58:18;;;;;;;264.60;119.00;;;6.20;99.90;;;;;;5053819;28;20028;-86
2023/01/14 10:01:01;;;;;;;263.33;115.70;;;6.20;99.90;;;;;;5052834;28;20359;-85
2023/01/14 10:06:30;;;;;;;255.38;114.72;;;6.20;99.90;;;;;;5054166;28;20360;-85
2023/01/14 10:09:04;;;;;;;245.30;115.00;;;6.20;99.90;;;;;;5052820;28;20017;-86
2023/01/14 10:11:37;;;;;;;254.60;116.97;;;6.20;99.90;;;;;;5052950;28;20543;-87
2023/01/14 10:17:57;;;;;;;232.00;111.15;;;6.20;99.90;;;;;;4895191;29;20025;-86
2023/01/14 10:21:07;;;;;;;263.63;127.65;;;6.30;99.90;;;;;;4889777;29;20039;-85
2023/01/14 10:23:37;;;;;;;272.25;128.75;;;6.40;99.90;;;;;;4825374;29;20042;-86
2023/01/14 10:26:35;;;;;;;275.63;128.95;;;6.40;99.90;;;;;;4840736;29;20490;-86
2023/01/14 10:29:19;;;;;;;246.10;118.85;;;6.40;99.90;;;;;;4802050;29;20539;-85
2023/01/14 10:31:58;;;;;;;250.70;118.30;;;6.40;99.90;;;;;;4789733;29;20130;-85
2023/01/14 10:34:48;;;;;;;268.33;123.57;;;6.40;99.90;;;;;;4804816;29;20035;-85
2023/01/14 10:37:14;;;;;;;269.30;125.43;;;6.50;99.90;;;;;;4804230;29;20035;-85
2023/01/14 10:45:37;;;;;;;255.60;121.25;;;6.70;99.90;;;;;;4750867;30;20097;-86
2023/01/14 11:42:43;;;;;;;187.85;95.40;;;6.80;99.90;;;;;;4890818;29;20055;-86
2023/01/14 14:06:27;;;;;;;162.37;84.60;;;8.00;99.90;;;;;;4967799;28;20061;-85
2023/01/14 14:40:00;;;;;;;301.38;122.03;;;7.80;99.90;;;;;;4872312;29;20130;-84
2023/01/14 14:42:28;;;;;;;201.27;93.53;;;7.80;99.90;;;;;;4952651;28;20034;-84
2023/01/14 15:22:06;;;;;;;;;;;;;;;;;;;;;
2023/01/14 15:28:07;;;;;;;;;;;;;;;;;;;;;
2023/01/14 15:30:51;;;;;;;;;;;;;;;;;;;;;
2023/01/14 15:40:12;;;;;;;233.93;129.68;;;7.00;99.90;;;;;;4841956;29;20102;-83
2023/01/14 15:42:58;;;;;;;235.18;123.38;;;7.00;99.90;;;;;;4833712;29;20052;-84
2023/01/14 15:45:34;;;;;;;244.70;120.65;;;6.90;99.90;;;;;;4827942;29;20362;-84
2023/01/14 15:48:04;;;;;;;240.38;116.68;;;6.80;99.90;;;;;;4843829;29;20412;-85
2023/01/14 15:50:41;;;;;;;233.93;115.70;;;6.70;99.90;;;;;;4843850;29;20032;-83
2023/01/14 15:53:18;;;;;;;219.60;113.00;;;6.70;99.90;;;;;;4843595;29;20033;-84
2023/01/14 15:56:01;;;;;;;241.48;118.10;;;6.70;99.90;;;;;;4891325;29;20083;-83
2023/01/14 15:58:34;;;;;;;230.38;113.68;;;6.60;99.90;;;;;;4902146;29;20071;-84
2023/01/14 16:01:30;;;;;;;228.45;113.03;;;6.60;99.90;;;;;;4901281;29;20099;-85
2023/01/14 16:04:06;;;;;;;233.30;117.65;;;6.60;99.90;;;;;;4890387;29;20060;-85
2023/01/14 16:06:40;;;;;;;243.93;125.88;;;6.50;99.90;;;;;;4900726;29;20040;-82
2023/01/14 16:09:12;;;;;;;290.40;142.88;;;6.40;99.90;;;;;;4894099;29;20036;-80
2023/01/14 16:11:41;;;;;;;305.35;151.13;;;6.40;99.90;;;;;;4901113;29;20028;-82
2023/01/14 16:14:36;;;;;;;310.58;151.38;;;6.30;99.90;;;;;;4956300;28;20073;-83
2023/01/14 16:17:02;;;;;;;312.48;148.40;;;6.30;99.90;;;;;;4976911;28;20085;-80
2023/01/14 16:19:28;;;;;;;310.42;146.88;;;6.30;99.90;;;;;;4977441;28;20027;-82
2023/01/14 16:21:54;;;;;;;320.40;152.18;;;6.20;99.90;;;;;;4975307;28;20033;-79
2023/01/14 16:24:19;;;;;;;322.48;149.60;;;6.20;99.90;;;;;;4970929;28;20054;-81
2023/01/14 16:26:45;;;;;;;306.85;146.48;;;6.10;99.90;;;;;;4974927;28;20023;-81
2023/01/14 16:29:13;;;;;;;307.08;144.27;;;6.10;99.90;;;;;;4975486;28;20030;-83
2023/01/14 16:31:39;;;;;;;304.40;145.55;;;6.10;99.90;;;;;;4977642;28;20050;-81
2023/01/14 16:34:05;;;;;;;309.80;146.13;;;6.00;99.90;;;;;;4975929;28;20121;-83
2023/01/14 16:36:31;;;;;;;301.10;148.68;;;6.00;99.90;;;;;;4976918;28;20470;-81
2023/01/14 16:38:57;;;;;;;308.55;154.35;;;5.90;99.90;;;;;;4973636;28;20105;-81
2023/01/14 16:41:23;;;;;;;291.77;144.82;;;5.90;99.90;;;;;;4976707;28;20050;-81
2023/01/14 16:43:49;;;;;;;305.58;154.63;;;5.90;99.90;;;;;;4975792;28;20121;-81
2023/01/14 16:46:16;;;;;;;300.02;156.20;;;5.80;99.90;;;;;;4974962;28;20023;-82
2023/01/14 16:48:42;;;;;;;331.10;172.13;;;5.80;99.90;;;;;;4975199;28;20058;-80
2023/01/14 16:51:16;;;;;;;334.15;171.27;;;5.70;99.90;;;;;;4975090;28;20077;-84
2023/01/14 16:53:44;;;;;;;509.65;243.50;;;5.70;99.90;;;;;;4974982;28;20089;-81
2023/01/14 16:56:09;;;;;;;435.70;212.57;;;5.70;99.90;;;;;;4974812;28;20023;-82
2023/01/14 16:58:35;;;;;;;423.88;218.70;;;5.60;99.90;;;;;;4974949;28;20029;-82
2023/01/14 17:01:06;;;;;;;358.02;183.65;;;5.50;99.90;;;;;;4974385;28;20027;-81
2023/01/14 17:03:32;;;;;;;314.77;149.40;;;5.40;99.90;;;;;;4976554;28;20033;-82
2023/01/14 17:05:58;;;;;;;348.73;171.02;;;5.40;99.90;;;;;;4975380;28;20037;-82
2023/01/14 17:08:24;;;;;;;333.27;160.65;;;5.30;99.90;;;;;;4975107;28;20117;-83
2023/01/14 17:10:50;;;;;;;398.77;195.55;;;5.30;99.90;;;;;;4975343;28;20051;-82
2023/01/14 17:13:15;;;;;;;413.52;215.88;;;5.20;99.90;;;;;;4974907;28;20480;-82
2023/01/14 17:15:41;;;;;;;566.40;279.48;;;5.10;99.90;;;;;;4974179;28;20046;-82
2023/01/14 17:18:09;;;;;;;490.05;251.95;;;5.10;99.90;;;;;;4975761;28;20366;-81
2023/01/14 17:20:35;;;;;;;493.67;252.60;;;5.10;99.90;;;;;;4976510;28;20031;-81
2023/01/14 17:23:03;;;;;;;491.40;242.57;;;5.00;99.90;;;;;;4975742;28;20062;-82
2023/01/14 17:25:29;;;;;;;430.83;207.55;;;4.90;99.90;;;;;;4972110;28;20034;-77
2023/01/14 17:27:55;;;;;;;441.58;214.07;;;4.90;99.90;;;;;;4970712;28;20101;-83
2023/01/14 17:30:22;;;;;;;430.40;204.52;;;4.80;99.90;;;;;;4974264;28;20027;-85
2023/01/14 17:32:49;;;;;;;418.35;204.45;;;4.80;99.90;;;;;;4973457;28;20470;-84
2023/01/14 17:35:23;;;;;;;474.00;224.30;;;4.70;99.90;;;;;;4971567;28;20027;-84
2023/01/14 17:37:51;;;;;;;453.88;213.55;;;4.70;99.90;;;;;;4969401;28;20512;-84
2023/01/14 17:40:20;;;;;;;461.58;223.20;;;4.60;99.90;;;;;;4973524;28;20454;-84
2023/01/14 17:42:54;;;;;;;467.00;227.30;;;4.60;99.90;;;;;;4975073;28;20393;-83
2023/01/14 17:45:23;;;;;;;460.60;244.95;;;4.60;99.90;;;;;;4975389;28;20464;-85
2023/01/14 17:47:49;;;;;;;432.48;231.23;;;4.50;99.90;;;;;;4974299;28;20031;-85
2023/01/14 17:50:16;;;;;;;437.88;235.25;;;4.50;99.90;;;;;;4972961;28;20038;-84